createdAt,value
2022-10-15T00:01:25.499Z,16.94
2022-10-15T00:03:52.425Z,16.80
2022-10-15T00:06:21.268Z,16.82
2022-10-15T00:08:48.556Z,16.84
2022-10-15T00:11:22.294Z,16.92
2022-10-15T00:13:50.190Z,16.83
2022-10-15T00:16:21.034Z,16.87
2022-10-15T00:18:48.560Z,16.94
2022-10-15T00:21:18.123Z,16.81
2022-10-15T00:23:45.697Z,16.90
2022-10-15T00:26:16.643Z,16.92
2022-10-15T00:28:43.930Z,16.92
2022-10-15T00:31:14.383Z,16.74
2022-10-15T00:33:42.056Z,16.94
2022-10-15T00:36:19.862Z,16.87
2022-10-15T00:38:46.753Z,16.64
2022-10-15T00:41:18.533Z,16.55
2022-10-15T00:43:48.283Z,16.63
2022-10-15T00:46:38.191Z,16.63
2022-10-15T00:49:19.211Z,16.67
2022-10-15T00:52:20.266Z,16.77
2022-10-15T00:54:59.827Z,16.72
2022-10-15T00:57:27.075Z,16.59
2022-10-15T00:59:58.807Z,16.76
2022-10-15T01:02:25.943Z,16.63
2022-10-15T01:04:53.566Z,16.55
2022-10-15T01:07:20.392Z,16.55
2022-10-15T01:09:47.462Z,16.58
2022-10-15T01:12:45.429Z,16.64
2022-10-15T01:15:30.720Z,16.88
2022-10-15T01:18:00.050Z,16.80
2022-10-15T01:20:57.320Z,16.58
2022-10-15T01:23:35.949Z,16.56
2022-10-15T01:26:39.035Z,16.53
2022-10-15T01:29:34.482Z,16.71
2022-10-15T01:32:12.887Z,16.54
2022-10-15T01:35:29.687Z,16.56
2022-10-15T01:38:25.455Z,16.54
2022-10-15T01:41:15.964Z,16.65
2022-10-15T01:43:57.990Z,16.56
2022-10-15T01:46:40.124Z,16.40
2022-10-15T01:49:09.058Z,16.56
2022-10-15T01:51:38.546Z,16.35
2022-10-15T01:54:09.617Z,16.27
2022-10-15T01:56:38.320Z,16.24
2022-10-15T01:59:06.297Z,16.39
2022-10-15T02:01:33.234Z,16.42
2022-10-15T02:04:00.543Z,16.54
2022-10-15T02:06:41.329Z,16.62
2022-10-15T02:09:31.000Z,16.56
2022-10-15T02:12:25.476Z,16.62
2022-10-15T02:15:17.061Z,16.58
2022-10-15T02:17:45.803Z,16.64
2022-10-15T02:20:17.692Z,16.65
2022-10-15T02:22:54.416Z,16.70
2022-10-15T02:25:24.618Z,16.57
2022-10-15T02:27:54.298Z,16.64
2022-10-15T02:30:21.426Z,16.67
2022-10-15T02:32:54.761Z,16.73
2022-10-15T02:35:22.716Z,16.75
2022-10-15T02:37:53.216Z,16.50
2022-10-15T02:40:27.204Z,16.44
2022-10-15T02:42:54.456Z,16.64
2022-10-15T02:45:21.847Z,16.73
2022-10-15T02:47:48.637Z,16.63
2022-10-15T02:50:15.534Z,16.58
2022-10-15T02:52:42.313Z,16.65
2022-10-15T02:55:09.569Z,16.74
2022-10-15T02:57:36.363Z,16.73
2022-10-15T03:00:04.481Z,16.57
2022-10-15T03:02:31.254Z,16.64
2022-10-15T03:04:58.022Z,16.60
2022-10-15T03:07:25.214Z,16.68
2022-10-15T03:09:52.227Z,16.60
2022-10-15T03:12:23.127Z,16.51
2022-10-15T03:14:50.189Z,16.61
2022-10-15T03:17:17.063Z,16.65
2022-10-15T03:19:44.205Z,16.64
2022-10-15T03:22:11.021Z,16.62
2022-10-15T03:24:37.831Z,16.60
2022-10-15T03:27:04.618Z,16.73
2022-10-15T03:29:31.427Z,16.78
2022-10-15T03:31:58.260Z,16.69
2022-10-15T03:34:25.132Z,16.74
2022-10-15T03:36:51.897Z,16.77
2022-10-15T03:39:18.783Z,16.84
2022-10-15T03:41:45.675Z,16.84
2022-10-15T03:44:12.954Z,16.84
2022-10-15T03:46:39.920Z,16.70
2022-10-15T03:49:06.803Z,16.87
2022-10-15T03:51:33.580Z,16.81
2022-10-15T03:54:00.387Z,16.93
2022-10-15T03:56:27.189Z,16.97
2022-10-15T03:58:53.968Z,16.97
2022-10-15T04:01:20.842Z,16.96
2022-10-15T04:03:47.714Z,16.89
2022-10-15T04:06:14.568Z,16.99
2022-10-15T04:08:41.539Z,17.08
2022-10-15T04:11:08.428Z,17.10
2022-10-15T04:13:35.218Z,17.19
2022-10-15T04:16:05.560Z,17.23
2022-10-15T04:18:32.917Z,17.16
2022-10-15T04:21:00.891Z,17.28
2022-10-15T04:23:28.097Z,17.29
2022-10-15T04:25:59.172Z,17.26
2022-10-15T04:28:26.155Z,17.26
2022-10-15T04:31:00.997Z,17.29
2022-10-15T04:33:28.278Z,17.25
2022-10-15T04:36:08.062Z,17.31
2022-10-15T04:38:35.308Z,17.35
2022-10-15T04:41:12.922Z,16.96
2022-10-15T04:43:40.654Z,17.30
2022-10-15T04:46:08.970Z,17.38
2022-10-15T04:48:40.454Z,17.37
2022-10-15T04:51:12.995Z,17.39
2022-10-15T04:53:40.415Z,17.36
2022-10-15T04:56:15.543Z,17.18
2022-10-15T04:58:43.320Z,17.26
2022-10-15T05:01:13.912Z,17.43
2022-10-15T05:03:45.071Z,17.35
2022-10-15T05:06:19.934Z,17.11
2022-10-15T05:08:48.247Z,17.21
2022-10-15T05:11:17.763Z,17.21
2022-10-15T05:13:44.604Z,17.42
2022-10-15T05:16:21.310Z,17.59
2022-10-15T05:18:51.509Z,17.23
2022-10-15T05:21:19.510Z,17.69
2022-10-15T05:23:47.236Z,17.68
2022-10-15T05:26:20.468Z,17.57
2022-10-15T05:28:47.904Z,17.65
2022-10-15T05:31:19.444Z,17.50
2022-10-15T05:33:51.725Z,17.65
2022-10-15T05:36:29.642Z,17.58
2022-10-15T05:39:00.220Z,17.83
2022-10-15T05:41:28.069Z,17.80
2022-10-15T05:43:58.028Z,17.83
2022-10-15T05:46:25.362Z,17.50
2022-10-15T05:48:55.137Z,17.78
2022-10-15T05:51:22.922Z,17.75
2022-10-15T05:53:53.262Z,17.96
2022-10-15T05:56:20.542Z,17.87
2022-10-15T05:58:47.349Z,17.92
2022-10-15T06:01:14.597Z,18.02
2022-10-15T06:03:42.357Z,18.10
2022-10-15T06:06:21.317Z,18.02
2022-10-15T06:08:49.077Z,18.26
2022-10-15T06:11:16.828Z,18.22
2022-10-15T06:13:44.763Z,18.20
2022-10-15T06:16:14.767Z,18.18
2022-10-15T06:18:43.475Z,18.27
2022-10-15T06:21:11.648Z,18.16
2022-10-15T06:23:38.640Z,18.19
2022-10-15T06:26:08.076Z,18.15
2022-10-15T06:28:36.526Z,18.23
2022-10-15T06:31:04.000Z,18.33
2022-10-15T06:33:31.815Z,18.34
2022-10-15T06:36:08.558Z,18.29
2022-10-15T06:38:36.548Z,18.18
2022-10-15T06:41:09.266Z,18.23
2022-10-15T06:43:36.348Z,18.22
2022-10-15T06:46:05.572Z,18.28
2022-10-15T06:48:33.054Z,18.41
2022-10-15T06:51:01.860Z,18.39
2022-10-15T06:53:30.341Z,18.52
2022-10-15T06:56:04.607Z,18.49
2022-10-15T06:58:32.154Z,18.39
2022-10-15T07:01:04.522Z,18.44
2022-10-15T07:03:31.798Z,17.98
2022-10-15T07:06:03.867Z,18.31
2022-10-15T07:08:30.721Z,18.28
2022-10-15T07:10:57.535Z,18.44
2022-10-15T07:13:24.378Z,18.59
2022-10-15T07:15:54.014Z,18.43
2022-10-15T07:18:21.097Z,18.66
2022-10-15T07:20:48.094Z,18.46
2022-10-15T07:23:15.146Z,18.70
2022-10-15T07:25:42.208Z,18.77
2022-10-15T07:28:09.069Z,18.67
2022-10-15T07:30:35.912Z,18.77
2022-10-15T07:33:02.835Z,18.76
2022-10-15T07:35:29.618Z,19.02
2022-10-15T07:37:56.449Z,18.98
2022-10-15T07:40:23.250Z,18.72
2022-10-15T07:42:57.147Z,18.74
2022-10-15T07:45:25.590Z,19.19
2022-10-15T07:47:52.937Z,19.03
2022-10-15T07:50:20.959Z,19.12
2022-10-15T07:52:47.877Z,18.80
2022-10-15T07:55:15.089Z,19.32
2022-10-15T07:57:41.884Z,19.23
2022-10-15T08:00:09.707Z,19.15
2022-10-15T08:02:36.486Z,19.13
2022-10-15T08:05:03.528Z,19.18
2022-10-15T08:07:30.387Z,19.66
2022-10-15T08:09:57.170Z,19.76
2022-10-15T08:12:24.290Z,19.96
2022-10-15T08:14:51.215Z,20.08
2022-10-15T08:17:18.023Z,20.09
2022-10-15T08:19:45.153Z,20.17
2022-10-15T08:22:12.694Z,20.03
2022-10-15T08:24:39.481Z,19.84
2022-10-15T08:27:06.310Z,19.72
2022-10-15T08:29:33.222Z,19.80
2022-10-15T08:31:59.980Z,19.56
2022-10-15T08:34:26.837Z,19.92
2022-10-15T08:36:53.614Z,20.01
2022-10-15T08:39:20.387Z,19.96
2022-10-15T08:41:59.704Z,20.13
2022-10-15T08:44:38.480Z,20.17
2022-10-15T08:47:29.052Z,19.81
2022-10-15T08:49:59.282Z,19.54
2022-10-15T08:52:47.704Z,19.75
2022-10-15T08:58:08.146Z,20.27
2022-10-15T09:00:42.242Z,19.75
2022-10-15T09:03:29.840Z,20.07
2022-10-15T09:06:36.438Z,20.31
2022-10-15T09:09:22.011Z,20.74
2022-10-15T09:11:59.607Z,19.71
2022-10-15T09:14:31.957Z,20.22
2022-10-15T09:17:05.312Z,20.45
2022-10-15T09:19:34.907Z,20.66
2022-10-15T09:22:02.810Z,20.50
2022-10-15T09:24:31.456Z,20.09
2022-10-15T09:27:11.259Z,20.63
2022-10-15T09:30:05.157Z,20.48
2022-10-15T09:32:55.848Z,20.56
2022-10-15T09:35:55.996Z,20.60
2022-10-15T09:38:47.212Z,20.21
2022-10-15T09:41:38.066Z,20.65
2022-10-15T09:44:11.129Z,20.39
2022-10-15T09:46:46.658Z,20.66
2022-10-15T09:49:21.472Z,21.33
2022-10-15T09:52:38.140Z,21.94
2022-10-15T09:55:49.602Z,23.04
2022-10-15T09:58:25.936Z,23.91
2022-10-15T10:01:06.761Z,23.09
2022-10-15T10:03:36.703Z,23.46
2022-10-15T10:06:14.535Z,22.60
2022-10-15T10:08:53.492Z,23.05
2022-10-15T10:11:22.290Z,23.19
2022-10-15T10:13:48.966Z,23.42
2022-10-15T10:16:18.343Z,23.72
2022-10-15T10:19:01.949Z,24.03
2022-10-15T10:21:33.580Z,24.63
2022-10-15T10:24:20.557Z,24.97
2022-10-15T10:26:48.244Z,24.69
2022-10-15T10:29:33.471Z,24.94
2022-10-15T10:32:18.917Z,25.67
2022-10-15T10:34:51.516Z,25.61
2022-10-15T10:37:19.757Z,25.62
2022-10-15T10:39:54.134Z,25.00
2022-10-15T10:42:32.132Z,25.09
2022-10-15T10:45:23.109Z,24.62
2022-10-15T10:47:50.248Z,24.26
2022-10-15T10:50:34.529Z,23.78
2022-10-15T10:53:24.803Z,24.63
2022-10-15T10:55:54.657Z,24.91
2022-10-15T10:58:26.403Z,25.25
2022-10-15T11:00:55.601Z,24.59
2022-10-15T11:03:37.481Z,24.31
2022-10-15T11:06:21.894Z,24.37
2022-10-15T11:09:42.332Z,24.80
2022-10-15T11:12:43.273Z,24.73
2022-10-15T11:15:40.093Z,23.77
2022-10-15T11:19:06.222Z,24.17
2022-10-15T11:22:22.053Z,23.28
2022-10-15T11:25:12.850Z,24.55
2022-10-15T11:28:05.466Z,26.22
2022-10-15T11:31:04.129Z,25.43
2022-10-15T11:34:11.614Z,26.03
2022-10-15T11:37:09.064Z,25.44
2022-10-15T11:39:56.583Z,25.53
2022-10-15T11:43:07.569Z,26.43
2022-10-15T11:46:13.786Z,25.43
2022-10-15T11:49:25.186Z,26.33
2022-10-15T11:52:07.270Z,26.01
2022-10-15T11:54:45.558Z,26.09
2022-10-15T11:57:17.077Z,25.61
2022-10-15T12:00:11.754Z,25.21
2022-10-15T12:02:39.995Z,26.95
2022-10-15T12:05:15.346Z,27.52
2022-10-15T12:07:50.099Z,28.26
2022-10-15T12:10:43.957Z,28.19
2022-10-15T12:13:22.637Z,29.10
2022-10-15T12:16:14.289Z,29.78
2022-10-15T12:18:52.448Z,30.35
2022-10-15T12:21:34.949Z,31.39
2022-10-15T12:24:03.716Z,31.74
2022-10-15T12:26:33.691Z,31.36
2022-10-15T12:29:16.667Z,30.25
2022-10-15T12:31:56.340Z,29.93
2022-10-15T12:34:43.035Z,29.56
2022-10-15T12:37:18.761Z,28.33
2022-10-15T12:39:52.298Z,27.66
2022-10-15T12:42:39.681Z,26.84
2022-10-15T12:45:20.745Z,26.10
2022-10-15T12:47:57.030Z,25.75
2022-10-15T12:50:27.399Z,25.74
2022-10-15T12:53:07.095Z,24.48
2022-10-15T12:55:35.031Z,25.15
2022-10-15T12:58:46.894Z,25.47
2022-10-15T13:01:19.572Z,26.14
2022-10-15T13:03:49.438Z,26.88
2022-10-15T13:06:22.461Z,27.25
2022-10-15T13:08:56.748Z,31.09
2022-10-15T13:11:32.881Z,31.98
2022-10-15T13:14:28.093Z,31.71
2022-10-15T13:16:55.793Z,30.92
2022-10-15T13:19:27.788Z,30.12
2022-10-15T13:22:04.422Z,29.34
2022-10-15T13:24:45.476Z,28.53
2022-10-15T13:27:39.801Z,30.36
2022-10-15T13:30:16.084Z,30.15
2022-10-15T13:32:52.242Z,30.13
2022-10-15T13:35:32.283Z,28.66
2022-10-15T13:38:00.569Z,27.54
2022-10-15T13:40:30.128Z,25.64
2022-10-15T13:43:24.753Z,25.41
2022-10-15T13:45:57.334Z,24.98
2022-10-15T13:48:31.552Z,24.79
2022-10-15T13:51:04.806Z,25.91
2022-10-15T13:53:35.970Z,28.64
2022-10-15T13:56:27.967Z,32.10
2022-10-15T13:58:55.676Z,33.89
2022-10-15T14:01:24.749Z,35.73
2022-10-15T14:03:53.680Z,36.94
2022-10-15T14:06:24.663Z,36.01
2022-10-15T14:08:55.708Z,36.33
2022-10-15T14:11:23.474Z,36.09
2022-10-15T14:13:53.332Z,33.96
2022-10-15T14:16:46.244Z,33.04
2022-10-15T14:19:20.589Z,32.00
2022-10-15T14:21:51.988Z,30.25
2022-10-15T14:24:40.148Z,30.75
2022-10-15T14:27:12.788Z,31.60
2022-10-15T14:29:46.308Z,31.68
2022-10-15T14:32:27.042Z,31.74
2022-10-15T14:35:08.675Z,30.77
2022-10-15T14:37:41.325Z,28.64
2022-10-15T14:40:11.085Z,27.23
2022-10-15T14:42:46.057Z,27.09
2022-10-15T14:45:20.948Z,27.23
2022-10-15T14:48:09.272Z,27.31
2022-10-15T14:50:42.418Z,27.29
2022-10-15T14:53:16.859Z,27.66
2022-10-15T14:55:48.885Z,30.20
2022-10-15T14:58:21.704Z,29.03
2022-10-15T15:01:01.848Z,30.38
2022-10-15T15:03:42.086Z,29.88
2022-10-15T15:06:09.707Z,28.83
2022-10-15T15:08:36.620Z,26.57
2022-10-15T15:11:06.577Z,26.22
2022-10-15T15:13:40.245Z,24.96
2022-10-15T15:16:10.102Z,24.16
2022-10-15T15:18:36.889Z,23.95
2022-10-15T15:21:07.334Z,23.88
2022-10-15T15:23:34.793Z,23.65
2022-10-15T15:26:01.860Z,22.84
2022-10-15T15:28:29.539Z,22.92
2022-10-15T15:31:18.125Z,22.80
2022-10-15T15:33:44.973Z,22.78
2022-10-15T15:36:18.896Z,22.43
2022-10-15T15:38:49.762Z,22.58
2022-10-15T15:41:22.533Z,22.35
2022-10-15T15:43:49.962Z,22.26
2022-10-15T15:46:17.533Z,22.21
2022-10-15T15:48:44.466Z,22.15
2022-10-15T15:51:30.528Z,22.16
2022-10-15T15:53:58.554Z,22.20
2022-10-15T15:56:25.859Z,22.28
2022-10-15T15:58:52.658Z,22.17
2022-10-15T16:01:20.369Z,22.02
2022-10-15T16:03:47.252Z,21.89
2022-10-15T16:06:14.553Z,21.69
2022-10-15T16:08:41.350Z,21.51
2022-10-15T16:11:08.206Z,21.57
2022-10-15T16:13:35.342Z,21.58
2022-10-15T16:16:02.380Z,21.57
2022-10-15T16:18:29.364Z,21.24
2022-10-15T16:20:56.252Z,21.24
2022-10-15T16:23:23.073Z,21.25
2022-10-15T16:25:49.953Z,21.24
2022-10-15T16:28:16.744Z,21.26
2022-10-15T16:30:43.539Z,21.14
2022-10-15T16:33:10.409Z,21.23
2022-10-15T16:35:37.270Z,21.28
2022-10-15T16:38:04.286Z,21.26
2022-10-15T16:40:31.099Z,21.26
2022-10-15T16:42:58.122Z,20.83
2022-10-15T16:45:24.912Z,20.64
2022-10-15T16:47:51.743Z,20.59
2022-10-15T16:50:18.683Z,20.43
2022-10-15T16:52:45.477Z,20.39
2022-10-15T16:55:12.271Z,20.30
2022-10-15T16:57:39.124Z,20.22
2022-10-15T17:00:06.604Z,20.14
2022-10-15T17:02:33.386Z,20.06
2022-10-15T17:05:00.186Z,20.06
2022-10-15T17:07:27.530Z,19.97
2022-10-15T17:09:54.599Z,19.88
2022-10-15T17:12:21.410Z,19.78
2022-10-15T17:14:51.634Z,19.80
2022-10-15T17:17:18.989Z,19.84
2022-10-15T17:19:45.878Z,19.68
2022-10-15T17:22:12.661Z,19.58
2022-10-15T17:24:39.761Z,19.54
2022-10-15T17:27:06.601Z,19.55
2022-10-15T17:29:33.880Z,19.49
2022-10-15T17:32:02.770Z,19.46
2022-10-15T17:34:29.724Z,19.43
2022-10-15T17:36:56.873Z,19.36
2022-10-15T17:39:23.853Z,19.39
2022-10-15T17:41:51.744Z,19.46
2022-10-15T17:44:19.335Z,19.49
2022-10-15T17:46:46.328Z,19.45
2022-10-15T17:49:18.068Z,19.45
2022-10-15T17:51:46.048Z,19.44
2022-10-15T17:54:13.240Z,19.40
2022-10-15T17:56:40.430Z,19.36
2022-10-15T17:59:11.497Z,19.39
2022-10-15T18:01:59.154Z,19.36
2022-10-15T18:04:30.181Z,19.35
2022-10-15T18:06:57.177Z,19.32
2022-10-15T18:09:25.905Z,19.28
2022-10-15T18:11:52.755Z,19.27
2022-10-15T18:16:47.287Z,19.21
2022-10-15T18:19:14.157Z,19.19
2022-10-15T18:21:41.934Z,19.17
2022-10-15T18:24:10.658Z,19.18
2022-10-15T18:26:37.442Z,19.11
2022-10-15T18:29:05.366Z,19.12
2022-10-15T18:31:32.204Z,19.14
2022-10-15T18:33:59.217Z,19.10
2022-10-15T18:36:29.902Z,19.06
2022-10-15T18:38:57.898Z,19.04
2022-10-15T18:41:33.404Z,18.99
2022-10-15T18:44:07.699Z,18.88
2022-10-15T18:46:35.199Z,18.85
2022-10-15T18:49:02.748Z,18.82
2022-10-15T18:51:30.698Z,18.82
2022-10-15T18:53:59.402Z,18.75
2022-10-15T18:56:26.906Z,18.86
2022-10-15T18:58:53.684Z,18.87
2022-10-15T19:01:33.865Z,18.80
2022-10-15T19:04:07.136Z,18.80
2022-10-15T19:06:38.324Z,18.94
2022-10-15T19:09:09.657Z,18.89
2022-10-15T19:11:38.091Z,18.78
2022-10-15T19:14:04.968Z,18.79
2022-10-15T19:16:32.125Z,18.89
2022-10-15T19:19:00.350Z,18.87
2022-10-15T19:21:27.723Z,18.88
2022-10-15T19:23:54.682Z,18.79
2022-10-15T19:26:21.485Z,18.76
2022-10-15T19:28:50.336Z,18.67
2022-10-15T19:31:26.866Z,18.64
2022-10-15T19:33:55.305Z,18.51
2022-10-15T19:36:24.304Z,18.46
2022-10-15T19:38:51.601Z,18.40
2022-10-15T19:41:19.630Z,18.35
2022-10-15T19:43:46.701Z,18.32
2022-10-15T19:46:14.025Z,18.24
2022-10-15T19:48:40.814Z,18.19
2022-10-15T19:51:08.774Z,18.15
2022-10-15T19:53:35.637Z,18.10
2022-10-15T19:56:06.865Z,18.04
2022-10-15T19:58:35.054Z,18.10
2022-10-15T20:01:02.802Z,18.22
2022-10-15T20:03:31.019Z,18.15
2022-10-15T20:05:58.964Z,18.12
2022-10-15T20:08:26.124Z,18.17
2022-10-15T20:10:53.652Z,18.19
2022-10-15T20:13:23.084Z,18.16
2022-10-15T20:15:53.551Z,18.26
2022-10-15T20:18:21.792Z,18.29
2022-10-15T20:20:49.092Z,18.37
2022-10-15T20:23:17.699Z,18.39
2022-10-15T20:25:45.585Z,18.43
2022-10-15T20:28:14.993Z,18.39
2022-10-15T20:30:42.661Z,18.39
2022-10-15T20:33:11.100Z,18.48
2022-10-15T20:35:40.629Z,18.47
2022-10-15T20:38:08.669Z,18.50
2022-10-15T20:40:39.673Z,18.54
2022-10-15T20:43:06.988Z,18.57
2022-10-15T20:45:43.464Z,18.58
2022-10-15T20:48:20.825Z,18.61
2022-10-15T20:50:49.324Z,18.68
2022-10-15T20:53:17.092Z,18.69
2022-10-15T20:55:43.975Z,18.63
2022-10-15T20:58:11.022Z,18.63
2022-10-15T21:00:37.877Z,18.63
2022-10-15T21:03:04.685Z,18.63
2022-10-15T21:05:31.516Z,18.65
2022-10-15T21:07:59.816Z,18.53
2022-10-15T21:10:27.034Z,18.58
2022-10-15T21:12:53.858Z,18.55
2022-10-15T21:15:20.721Z,18.59
2022-10-15T21:17:48.029Z,18.54
2022-10-15T21:20:15.266Z,18.50
2022-10-15T21:22:42.055Z,18.50
2022-10-15T21:25:08.920Z,18.51
2022-10-15T21:27:35.756Z,18.41
2022-10-15T21:30:02.553Z,18.34
2022-10-15T21:32:29.352Z,18.30
2022-10-15T21:34:56.157Z,18.29
2022-10-15T21:37:23.284Z,18.28
2022-10-15T21:39:50.934Z,18.23
2022-10-15T21:42:17.717Z,18.13
2022-10-15T21:44:44.673Z,18.08
2022-10-15T21:47:14.377Z,18.04
2022-10-15T21:49:42.186Z,18.05
2022-10-15T21:52:08.989Z,18.00
2022-10-15T21:54:35.804Z,17.94
2022-10-15T21:57:02.566Z,18.00
2022-10-15T21:59:29.477Z,17.95
2022-10-15T22:01:56.334Z,17.96
2022-10-15T22:04:23.210Z,17.93
2022-10-15T22:06:50.000Z,17.95
2022-10-15T22:09:16.774Z,17.94
2022-10-15T22:11:43.612Z,17.88
2022-10-15T22:14:13.285Z,17.86
2022-10-15T22:16:41.316Z,17.82
2022-10-15T22:19:10.019Z,17.71
2022-10-15T22:21:38.511Z,17.66
2022-10-15T22:24:13.579Z,17.62
2022-10-15T22:26:44.610Z,17.51
2022-10-15T22:29:24.997Z,17.47
2022-10-15T22:31:52.825Z,17.43
2022-10-15T22:34:20.903Z,17.43
2022-10-15T22:36:48.134Z,17.35
2022-10-15T22:39:17.476Z,17.67
2022-10-15T22:41:47.533Z,17.45
2022-10-15T22:44:18.860Z,17.41
2022-10-15T22:46:46.175Z,17.43
2022-10-15T22:49:14.085Z,17.47
2022-10-15T22:51:41.872Z,17.48
2022-10-15T22:54:08.785Z,17.49
2022-10-15T22:56:36.830Z,17.48
2022-10-15T22:59:04.440Z,17.46
2022-10-15T23:01:32.696Z,17.36
2022-10-15T23:04:05.853Z,17.31
2022-10-15T23:06:36.573Z,17.30
2022-10-15T23:09:06.242Z,17.27
2022-10-15T23:11:39.558Z,17.08
2022-10-15T23:14:16.908Z,17.11
2022-10-15T23:16:46.723Z,17.06
2022-10-15T23:19:18.263Z,16.96
2022-10-15T23:21:50.977Z,16.94
2022-10-15T23:24:21.573Z,16.79
2022-10-15T23:26:48.841Z,16.78
2022-10-15T23:29:20.041Z,16.72
2022-10-15T23:31:48.699Z,16.63
2022-10-15T23:34:19.821Z,16.55
2022-10-15T23:36:47.191Z,16.48
2022-10-15T23:39:17.363Z,16.36
2022-10-15T23:41:44.831Z,16.30
2022-10-15T23:44:12.601Z,16.23
2022-10-15T23:46:40.318Z,16.15
2022-10-15T23:49:07.293Z,15.96
2022-10-15T23:51:34.793Z,15.96
2022-10-15T23:54:03.819Z,15.91
2022-10-15T23:56:31.233Z,15.87
2022-10-15T23:59:00.382Z,15.84
